Terminal Aerodrome Forecast
Issued by NWS Milwaukee/Sullivan, WI

Home | Current Version | Previous Version | Text Only | Print | Product List | Glossary On
Versions: 1 2 3 4 5 6 7 8 9 10 11 12 13 14 15 16 17 18 19 20 21 22 23 24 25 26 27 28 29 30 31 32 33 34 35 36 37 38 39 40 41 42 43 44 45 46 47 48 49 50
000
FTUS43 KMKX 030520
TAFMSN
TAF
KMSN 030520Z 0306/0406 00000KT P6SM FEW080
     FM031400 28008KT P6SM FEW050 SCT250
     FM031800 27011G19KT P6SM SCT060 SCT150
     FM032300 26012G23KT P6SM VCSH BKN060 BKN100
     FM040100 26011KT P6SM SHRA VCTS BKN050CB
      TEMPO 0402/0404 5SM -TSRA BKN040CB=

USA.gov is the U.S. government's official web portal to all federal, state and local government web resources and services.